Time;durP1;ratioP1;P1;durP2;ratioP2;P2;SDS_P1;SDS_P2;PMS_P1;PMS_P2;Temp;Humidity;BMP_temperature;BMP_pressure;BME280_temperature;BME280_humidity;BME280_pressure;Samples;Min_cycle;Max_cycle;Signal;HPM_P1;HPM_P2
2023/05/17 00:00:56;;;;;;;9.43;4.78;;;;;;;12.92;68.16;102213.88;5011507;28;20157;-46
2023/05/17 00:03:24;;;;;;;9.48;4.60;;;;;;;12.88;68.40;102212.06;5012099;28;20042;-45
2023/05/17 00:05:52;;;;;;;8.70;5.22;;;;;;;12.83;68.62;102213.06;4993591;28;20407;-46
2023/05/17 00:08:19;;;;;;;7.38;4.63;;;;;;;12.80;68.58;102211.75;5012025;28;20085;-45
2023/05/17 00:10:45;;;;;;;11.15;5.05;;;;;;;12.78;68.59;102213.22;5012227;28;20096;-44
2023/05/17 00:13:12;;;;;;;12.15;6.70;;;;;;;12.72;68.96;102215.34;5012221;28;20092;-44
2023/05/17 00:15:39;;;;;;;9.32;5.05;;;;;;;12.68;68.91;102219.09;5011333;28;20046;-49
2023/05/17 00:18:06;;;;;;;10.25;5.53;;;;;;;12.64;68.92;102218.91;4994457;28;20141;-44
2023/05/17 00:20:34;;;;;;;8.85;4.95;;;;;;;12.65;68.97;102220.56;5011486;28;20069;-48
2023/05/17 00:23:01;;;;;;;12.40;5.13;;;;;;;12.58;68.84;102222.97;5011708;28;20136;-44
2023/05/17 00:25:29;;;;;;;12.65;5.07;;;;;;;12.53;69.05;102223.13;4993365;28;20046;-44
2023/05/17 00:27:56;;;;;;;9.68;4.97;;;;;;;12.53;68.84;102223.13;5010748;28;20056;-48
2023/05/17 00:30:23;;;;;;;10.48;5.10;;;;;;;12.47;69.03;102216.06;5011402;28;20042;-44
2023/05/17 00:32:49;;;;;;;14.93;5.75;;;;;;;12.41;69.01;102214.59;5010675;28;20073;-45
2023/05/17 00:35:16;;;;;;;11.65;5.15;;;;;;;12.35;69.14;102221.44;5010643;28;20096;-44
2023/05/17 00:37:46;;;;;;;12.27;4.95;;;;;;;12.29;69.41;102225.47;5011613;28;20042;-47
2023/05/17 00:40:15;;;;;;;16.13;4.38;;;;;;;12.27;69.41;102213.06;5011190;28;20045;-48
2023/05/17 00:42:41;;;;;;;7.07;4.45;;;;;;;12.27;69.54;102208.34;5011292;28;20491;-45
2023/05/17 00:45:09;;;;;;;9.98;5.43;;;;;;;12.25;69.53;102210.63;5010413;28;20054;-44
2023/05/17 00:47:36;;;;;;;10.40;4.88;;;;;;;12.21;69.65;102216.00;5011241;28;20460;-44
2023/05/17 00:50:05;;;;;;;9.57;4.40;;;;;;;12.21;69.61;102220.72;4993378;28;20080;-49
2023/05/17 00:52:32;;;;;;;9.73;4.22;;;;;;;12.14;69.79;102215.63;5010961;28;20037;-44
2023/05/17 00:54:59;;;;;;;12.00;4.70;;;;;;;12.09;69.94;102209.41;5010405;28;20100;-51
2023/05/17 00:57:27;;;;;;;6.75;4.45;;;;;;;12.07;70.00;102218.03;5011016;28;20046;-44
2023/05/17 00:59:55;;;;;;;7.05;3.85;;;;;;;12.06;69.97;102215.59;5011250;28;20042;-44
2023/05/17 01:02:22;;;;;;;9.52;4.88;;;;;;;12.02;70.21;102222.94;5010323;28;20109;-44
2023/05/17 01:04:49;;;;;;;6.65;3.83;;;;;;;11.98;70.44;102222.75;5010332;28;20049;-44
2023/05/17 01:07:16;;;;;;;9.48;4.38;;;;;;;11.97;70.37;102223.03;5011022;28;20042;-46
2023/05/17 01:09:44;;;;;;;8.98;4.28;;;;;;;11.92;70.63;102235.13;5011054;28;20054;-46
2023/05/17 01:12:29;;;;;;;12.02;4.38;;;;;;;11.97;70.39;102231.38;5010349;28;20058;-44
2023/05/17 01:15:02;;;;;;;10.75;4.78;;;;;;;11.95;70.34;102230.88;5009806;28;20079;-44
2023/05/17 01:17:44;;;;;;;10.55;5.20;;;;;;;11.90;70.39;102231.84;5010642;28;20046;-45
2023/05/17 01:20:25;;;;;;;10.65;4.25;;;;;;;11.90;70.42;102234.63;5010331;28;20104;-44
2023/05/17 01:23:10;;;;;;;7.85;4.20;;;;;;;11.93;70.46;102231.22;5010601;28;20060;-44
2023/05/17 01:25:54;;;;;;;7.95;4.07;;;;;;;11.94;70.14;102230.06;5009820;28;20072;-44
2023/05/17 01:28:23;;;;;;;8.23;4.20;;;;;;;11.80;70.34;102225.75;5009821;28;20056;-44
2023/05/17 01:30:51;;;;;;;11.40;5.45;;;;;;;11.71;70.68;102227.63;5010282;28;20847;-44
2023/05/17 01:33:19;;;;;;;8.43;4.75;;;;;;;11.64;71.14;102228.06;5010145;28;20107;-44
2023/05/17 01:35:46;;;;;;;12.15;4.97;;;;;;;11.61;71.32;102223.16;5009685;28;20050;-47
2023/05/17 01:38:13;;;;;;;9.48;4.28;;;;;;;11.58;71.39;102229.31;5009717;28;20034;-44
2023/05/17 01:40:48;;;;;;;8.82;4.85;;;;;;;11.52;71.79;102220.31;5010362;28;20042;-46
2023/05/17 01:43:34;;;;;;;13.23;4.68;;;;;;;11.49;71.76;102220.94;5009751;28;20045;-44
2023/05/17 01:46:13;;;;;;;9.45;4.50;;;;;;;11.50;71.79;102228.13;5009450;28;20053;-46
2023/05/17 01:48:48;;;;;;;11.02;5.07;;;;;;;11.47;71.79;102223.19;4998700;28;20077;-44
2023/05/17 01:51:19;;;;;;;11.82;6.65;;;;;;;11.45;71.87;102219.13;5009989;28;20038;-44
2023/05/17 01:53:50;;;;;;;11.90;5.50;;;;;;;11.45;71.75;102217.16;5010216;28;20046;-49
2023/05/17 01:56:32;;;;;;;8.68;5.70;;;;;;;11.50;71.96;102228.13;5008298;28;20056;-45
2023/05/17 01:59:03;;;;;;;13.35;5.63;;;;;;;11.48;71.86;102215.72;5009434;28;20100;-44
2023/05/17 02:01:31;;;;;;;9.20;4.95;;;;;;;11.48;71.86;102212.94;5010501;28;20061;-44
2023/05/17 02:03:58;;;;;;;10.13;4.13;;;;;;;11.54;71.77;102220.78;5009867;28;20078;-44
2023/05/17 02:06:25;;;;;;;12.43;4.82;;;;;;;11.54;71.82;102222.78;4991520;28;20527;-47
2023/05/17 02:08:52;;;;;;;9.57;4.95;;;;;;;11.49;71.73;102222.91;5009631;28;20042;-49
2023/05/17 02:11:19;;;;;;;10.68;4.82;;;;;;;11.43;72.11;102227.75;5010111;28;20603;-50
2023/05/17 02:13:46;;;;;;;10.52;5.60;;;;;;;11.45;72.19;102225.47;5009729;28;20565;-45
2023/05/17 02:16:12;;;;;;;11.93;6.13;;;;;;;11.43;72.05;102227.75;5009237;28;20049;-45
2023/05/17 02:18:40;;;;;;;11.18;5.57;;;;;;;11.36;72.29;102227.34;5009649;28;20173;-46
2023/05/17 02:21:06;;;;;;;13.48;6.43;;;;;;;11.28;72.69;102233.66;5010156;28;20096;-44
2023/05/17 02:23:33;;;;;;;14.75;6.18;;;;;;;11.18;72.91;102238.63;5009778;28;20049;-44
2023/05/17 02:26:00;;;;;;;14.07;5.82;;;;;;;11.16;73.13;102236.16;5008769;28;20052;-50
2023/05/17 02:28:27;;;;;;;13.50;7.40;;;;;;;11.18;73.15;102235.84;5009414;28;20049;-47
2023/05/17 02:30:55;;;;;;;11.50;7.10;;;;;;;11.16;73.01;102225.09;5009373;28;20046;-44
2023/05/17 02:33:22;;;;;;;16.20;5.35;;;;;;;11.14;73.22;102224.59;5009010;28;20575;-44
2023/05/17 02:35:49;;;;;;;12.88;6.00;;;;;;;11.09;73.22;102233.03;5003936;28;20571;-49
2023/05/17 02:38:16;;;;;;;17.35;7.20;;;;;;;11.01;73.54;102225.44;5009517;28;20519;-45
2023/05/17 02:40:43;;;;;;;19.75;7.15;;;;;;;10.93;73.75;102223.41;5009189;28;20042;-45
2023/05/17 02:43:09;;;;;;;13.63;6.82;;;;;;;10.89;73.94;102230.69;5009105;28;20045;-49
2023/05/17 02:45:36;;;;;;;12.38;6.18;;;;;;;10.83;74.15;102218.91;5008299;28;20046;-49
2023/05/17 02:48:03;;;;;;;16.23;6.38;;;;;;;10.85;74.16;102211.13;5008983;28;20030;-44
2023/05/17 02:50:30;;;;;;;11.20;5.85;;;;;;;10.83;74.26;102216.13;5009169;28;20044;-44
2023/05/17 02:52:57;;;;;;;10.63;5.70;;;;;;;10.91;74.13;102214.56;5009070;28;20562;-44
2023/05/17 02:55:24;;;;;;;14.38;6.55;;;;;;;10.89;73.96;102212.13;5007835;28;20038;-48
2023/05/17 02:57:51;;;;;;;9.70;6.30;;;;;;;10.81;74.12;102221.16;5009201;28;20049;-44
2023/05/17 03:02:51;;;;;;;12.18;5.93;;;;;;;10.79;74.31;102222.63;4916970;22;20051;-45
2023/05/17 03:05:18;;;;;;;18.63;6.30;;;;;;;10.84;74.42;102214.19;4969038;28;20082;-44
2023/05/17 03:07:45;;;;;;;11.98;6.05;;;;;;;10.86;74.19;102218.28;4968799;28;20039;-44
2023/05/17 03:10:12;;;;;;;16.80;5.85;;;;;;;10.81;74.23;102221.16;4970145;28;20551;-44
2023/05/17 03:12:38;;;;;;;10.05;5.35;;;;;;;10.82;74.42;102222.00;4970092;28;20126;-44
2023/05/17 03:15:06;;;;;;;21.60;6.28;;;;;;;10.78;74.56;102212.66;4969799;28;20382;-44
2023/05/17 03:17:32;;;;;;;13.77;5.65;;;;;;;10.75;74.60;102213.31;4969137;28;20709;-44
2023/05/17 03:19:59;;;;;;;12.85;5.00;;;;;;;10.75;74.86;102205.00;4952794;28;20058;-44
2023/05/17 03:22:26;;;;;;;11.13;5.90;;;;;;;10.80;74.79;102199.34;4968801;28;20438;-44
2023/05/17 03:24:53;;;;;;;11.02;5.45;;;;;;;10.90;74.57;102202.69;4969615;28;20454;-44
2023/05/17 03:27:20;;;;;;;13.73;5.65;;;;;;;10.98;74.45;102204.72;4968055;28;20047;-45
2023/05/17 03:29:49;;;;;;;14.50;6.10;;;;;;;10.97;74.37;102203.06;4969089;28;20150;-44
2023/05/17 03:32:16;;;;;;;14.95;6.00;;;;;;;10.86;74.49;102203.59;4969567;28;20057;-44
2023/05/17 03:34:43;;;;;;;7.20;4.68;;;;;;;10.79;74.87;102211.53;4969448;28;20117;-44
2023/05/17 03:37:10;;;;;;;14.93;5.85;;;;;;;10.77;74.92;102197.19;4968760;28;20057;-44
2023/05/17 03:39:37;;;;;;;8.57;4.80;;;;;;;10.80;74.92;102207.66;4968675;28;20109;-50
2023/05/17 03:42:05;;;;;;;13.43;5.45;;;;;;;10.72;75.00;102211.16;4969566;28;20605;-44
2023/05/17 03:44:31;;;;;;;12.02;5.15;;;;;;;10.66;75.25;102201.31;4969401;28;20047;-44
2023/05/17 03:46:58;;;;;;;11.20;4.65;;;;;;;10.62;75.55;102201.09;4968691;28;20497;-44
2023/05/17 03:49:25;;;;;;;17.42;5.47;;;;;;;10.62;75.66;102200.25;4952388;28;20058;-44
2023/05/17 03:51:52;;;;;;;8.77;5.00;;;;;;;10.66;75.64;102206.84;4970106;28;20034;-47
2023/05/17 03:54:18;;;;;;;16.20;5.70;;;;;;;10.67;75.55;102214.03;4968898;28;20039;-44
2023/05/17 03:56:47;;;;;;;17.90;5.35;;;;;;;10.65;75.54;102199.66;4967993;28;20046;-44
2023/05/17 03:59:15;;;;;;;12.50;4.47;;;;;;;10.67;75.68;102197.41;4969499;28;20092;-47
2023/05/17 04:01:44;;;;;;;8.07;4.88;;;;;;;10.70;75.56;102197.59;4969519;28;20059;-45
2023/05/17 04:04:11;;;;;;;11.93;5.93;;;;;;;10.66;75.38;102204.06;4968945;28;20046;-44
2023/05/17 04:06:39;;;;;;;10.32;5.38;;;;;;;10.61;75.71;102209.72;4971603;28;20112;-44
2023/05/17 04:09:09;;;;;;;10.30;4.57;;;;;;;10.60;75.92;102208.06;4973053;28;20157;-45
2023/05/17 04:11:37;;;;;;;12.95;5.75;;;;;;;10.61;76.00;102209.72;4973479;28;20073;-50
2023/05/17 04:14:04;;;;;;;11.75;4.80;;;;;;;10.63;75.77;102211.06;4959400;28;20134;-44
2023/05/17 04:16:31;;;;;;;13.65;5.85;;;;;;;10.64;75.78;102209.09;4972260;28;20042;-44
2023/05/17 04:19:01;;;;;;;15.15;5.43;;;;;;;10.60;75.87;102208.06;4973241;28;20047;-44
2023/05/17 04:21:28;;;;;;;11.20;5.43;;;;;;;10.56;76.16;102198.75;4973284;28;20405;-46
2023/05/17 04:23:55;;;;;;;11.93;5.00;;;;;;;10.58;76.16;102193.72;4972745;28;20066;-44
2023/05/17 04:26:22;;;;;;;11.25;5.15;;;;;;;10.56;76.28;102202.34;4971842;28;20047;-46
2023/05/17 04:28:49;;;;;;;11.93;5.20;;;;;;;10.53;76.08;102197.44;4971797;28;20111;-44
2023/05/17 04:31:16;;;;;;;8.70;5.10;;;;;;;10.49;76.48;102201.09;4972046;28;20089;-46
2023/05/17 04:33:44;;;;;;;12.48;5.72;;;;;;;10.48;76.79;102191.19;4972446;28;20035;-44
2023/05/17 04:36:10;;;;;;;12.20;5.38;;;;;;;10.46;76.75;102201.75;4970748;28;20055;-44
2023/05/17 04:38:37;;;;;;;12.35;5.32;;;;;;;10.45;76.87;102197.31;4972395;28;20050;-47
2023/05/17 04:41:05;;;;;;;6.95;4.63;;;;;;;10.43;77.20;102194.88;4972338;28;20131;-45
2023/05/17 04:43:32;;;;;;;10.35;5.68;;;;;;;10.49;77.19;102195.56;4972286;28;20068;-46
2023/05/17 04:45:59;;;;;;;9.50;6.45;;;;;;;10.56;77.13;102204.28;4972067;28;20047;-44
2023/05/17 04:48:31;;;;;;;12.70;5.47;;;;;;;10.53;77.10;102202.13;4972106;28;20405;-50
2023/05/17 04:51:05;;;;;;;13.38;6.78;;;;;;;10.52;77.18;102206.84;4972234;28;20046;-48
2023/05/17 04:53:32;;;;;;;11.15;5.60;;;;;;;10.57;77.10;102209.50;4972332;28;20039;-44
2023/05/17 04:55:59;;;;;;;9.88;5.10;;;;;;;10.60;77.10;102210.84;4971884;28;20053;-44
2023/05/17 04:58:26;;;;;;;11.85;4.43;;;;;;;10.60;77.10;102213.59;4970045;28;20050;-44
2023/05/17 05:00:53;;;;;;;8.50;4.45;;;;;;;10.57;77.18;102217.00;4971864;28;20092;-44
2023/05/17 05:03:21;;;;;;;11.73;4.90;;;;;;;10.66;77.32;102223.47;4971362;28;20043;-44
2023/05/17 05:05:48;;;;;;;13.70;5.70;;;;;;;10.73;77.14;102215.53;4971502;28;20540;-44
2023/05/17 05:08:15;;;;;;;13.48;5.65;;;;;;;10.81;77.05;102220.34;4971053;28;20555;-46
2023/05/17 05:10:42;;;;;;;9.85;5.57;;;;;;;10.82;76.84;102227.53;4972166;28;20042;-44
2023/05/17 05:13:08;;;;;;;10.40;4.63;;;;;;;10.83;76.84;102232.75;4972020;28;20047;-44
2023/05/17 05:15:36;;;;;;;9.48;4.85;;;;;;;10.84;76.98;102226.09;4971391;28;20400;-44
2023/05/17 05:18:03;;;;;;;11.27;5.45;;;;;;;10.81;77.25;102226.72;4970559;28;20567;-45
2023/05/17 05:20:30;;;;;;;11.07;5.65;;;;;;;10.82;77.21;102227.53;4969295;28;20082;-44
2023/05/17 05:22:59;;;;;;;21.75;7.78;;;;;;;10.84;77.27;102236.34;4970906;28;20078;-44
2023/05/17 05:25:26;;;;;;;11.38;6.15;;;;;;;10.84;77.36;102236.34;4970800;28;20050;-45
2023/05/17 05:27:59;;;;;;;9.10;4.97;;;;;;;10.92;77.29;102238.38;4971313;28;20615;-44
2023/05/17 05:30:26;;;;;;;11.68;5.70;;;;;;;10.99;77.03;102239.59;4970892;28;20043;-45
2023/05/17 05:32:52;;;;;;;13.98;6.40;;;;;;;11.03;76.86;102242.56;4971601;28;20053;-44
2023/05/17 05:35:24;;;;;;;11.52;5.97;;;;;;;11.03;76.92;102242.56;4971280;28;20083;-44
2023/05/17 05:37:53;;;;;;;;;;;;;;;11.08;77.31;102245.22;4971223;28;20055;-44
2023/05/17 05:40:20;;;;;;;12.00;6.25;;;;;;;11.15;76.43;102256.69;4961035;28;19930;-45
2023/05/17 05:42:47;;;;;;;14.88;6.70;;;;;;;11.18;76.68;102258.84;4971193;28;20153;-44
2023/05/17 05:45:14;;;;;;;13.77;7.07;;;;;;;11.22;76.79;102257.09;4971658;28;20081;-44
2023/05/17 05:47:40;;;;;;;16.75;6.80;;;;;;;11.28;76.93;102269.69;4971159;28;20055;-49
2023/05/17 05:50:08;;;;;;;14.02;6.80;;;;;;;11.29;76.98;102259.44;4970324;28;20054;-44
2023/05/17 05:52:35;;;;;;;13.25;5.93;;;;;;;11.31;76.95;102266.31;4971007;28;20058;-44
2023/05/17 05:55:02;;;;;;;15.82;6.28;;;;;;;11.35;77.08;102258.19;4970450;28;20043;-44
2023/05/17 05:57:29;;;;;;;15.15;7.65;;;;;;;11.41;77.11;102260.50;4970863;28;20105;-44
2023/05/17 05:59:56;;;;;;;13.70;6.68;;;;;;;11.45;77.17;102264.31;4952827;28;20082;-45
2023/05/17 06:02:23;;;;;;;11.43;6.32;;;;;;;11.49;76.88;102276.41;4970692;28;20382;-44
2023/05/17 06:04:50;;;;;;;19.67;6.97;;;;;;;11.56;76.89;102282.34;4970584;28;20054;-44
2023/05/17 06:07:17;;;;;;;16.05;7.40;;;;;;;11.57;76.85;102272.06;4970541;28;20038;-44
2023/05/17 06:09:44;;;;;;;11.30;6.25;;;;;;;11.62;76.78;102292.16;4952671;28;20050;-44
2023/05/17 06:12:10;;;;;;;15.45;5.82;;;;;;;11.68;76.75;102290.09;4970093;28;20093;-44
2023/05/17 06:14:37;;;;;;;12.15;5.70;;;;;;;11.70;76.55;102290.66;4970808;28;20047;-44
2023/05/17 06:17:04;;;;;;;10.32;5.13;;;;;;;11.70;76.47;102290.66;4970744;28;20051;-44
2023/05/17 06:19:31;;;;;;;10.77;5.55;;;;;;;11.74;76.57;102282.50;4969920;28;20126;-44
2023/05/17 06:21:58;;;;;;;18.85;8.00;;;;;;;11.76;76.43;102296.88;4968594;28;20059;-44
2023/05/17 06:24:25;;;;;;;13.90;7.45;;;;;;;11.74;76.29;102299.13;4969830;28;20046;-44
2023/05/17 06:26:52;;;;;;;16.20;6.70;;;;;;;11.76;76.33;102299.63;4970332;28;20043;-44
2023/05/17 06:29:18;;;;;;;10.82;6.55;;;;;;;11.82;76.29;102307.53;4955258;28;20513;-44
2023/05/17 06:31:45;;;;;;;20.92;6.30;;;;;;;11.85;76.17;102294.97;4967730;28;20043;-44
2023/05/17 06:34:12;;;;;;;14.20;5.63;;;;;;;11.86;76.34;102297.44;4970386;28;20662;-44
2023/05/17 06:36:39;;;;;;;11.55;5.45;;;;;;;11.94;76.31;102293.09;4969936;28;20042;-44
2023/05/17 06:39:06;;;;;;;8.07;5.18;;;;;;;12.03;76.13;102291.19;4970386;28;20054;-47
2023/05/17 06:41:33;;;;;;;11.68;6.30;;;;;;;12.09;76.10;102287.97;4969880;28;20054;-44
2023/05/17 06:44:00;;;;;;;11.32;4.75;;;;;;;12.14;75.93;102287.00;4970506;28;20039;-45
2023/05/17 06:46:29;;;;;;;11.90;5.90;;;;;;;12.16;75.89;102291.09;4952403;28;20062;-48
2023/05/17 06:48:56;;;;;;;11.80;4.55;;;;;;;12.17;75.58;102289.16;4970320;28;20046;-45
2023/05/17 06:51:23;;;;;;;13.93;5.20;;;;;;;12.18;75.67;102291.59;4968903;28;20412;-45
2023/05/17 06:53:50;;;;;;;9.23;4.88;;;;;;;12.25;75.79;102288.38;4969375;28;20556;-45
2023/05/17 06:56:17;;;;;;;10.23;4.97;;;;;;;12.32;75.68;102297.06;4969930;28;20046;-47
2023/05/17 06:58:45;;;;;;;9.10;4.93;;;;;;;12.40;75.74;102290.72;4970040;28;20064;-46
2023/05/17 07:01:15;;;;;;;11.02;5.38;;;;;;;12.50;75.65;102296.00;4968556;28;20058;-45
2023/05/17 07:03:45;;;;;;;15.05;5.18;;;;;;;12.61;75.44;102300.13;4968599;28;20461;-45
2023/05/17 07:06:12;;;;;;;10.98;4.85;;;;;;;12.72;75.31;102307.03;4952538;28;20126;-45
2023/05/17 07:08:39;;;;;;;11.98;5.25;;;;;;;12.83;75.31;102300.03;4970207;28;20051;-46
2023/05/17 07:11:06;;;;;;;12.63;5.32;;;;;;;12.92;75.20;102296.47;4954203;28;20105;-46
2023/05/17 07:13:33;;;;;;;10.95;4.75;;;;;;;12.97;75.06;102293.53;4969562;28;20142;-45
2023/05/17 07:16:00;;;;;;;11.18;5.85;;;;;;;13.03;74.92;102295.00;4970207;28;20050;-45
2023/05/17 07:18:26;;;;;;;11.38;4.72;;;;;;;13.09;74.75;102290.97;4973755;28;20508;-48
2023/05/17 07:20:53;;;;;;;10.80;4.78;;;;;;;13.19;74.79;102290.66;4968736;28;20396;-44
2023/05/17 07:23:20;;;;;;;18.05;6.55;;;;;;;13.31;74.78;102300.00;4969268;28;20055;-45
2023/05/17 07:25:47;;;;;;;13.68;5.30;;;;;;;13.45;74.71;102293.47;4970009;28;20188;-46
2023/05/17 07:28:14;;;;;;;9.07;4.05;;;;;;;13.60;74.90;102296.56;4969895;28;20062;-45
2023/05/17 07:30:41;;;;;;;13.15;5.05;;;;;;;13.72;75.22;102293.09;4980740;28;20058;-44
2023/05/17 07:33:08;;;;;;;16.30;5.38;;;;;;;13.83;75.58;102289.66;4968283;28;20471;-48
2023/05/17 07:35:35;;;;;;;8.90;5.32;;;;;;;13.98;75.80;102291.94;4969888;28;20043;-49
2023/05/17 07:38:02;;;;;;;14.00;4.70;;;;;;;14.13;76.11;102292.56;4969172;28;20047;-46
2023/05/17 07:40:29;;;;;;;10.73;4.50;;;;;;;14.30;76.50;102295.28;4970713;28;20125;-48
2023/05/17 07:42:58;;;;;;;12.23;4.40;;;;;;;14.52;76.54;102295.06;4972370;28;20065;-45
2023/05/17 07:45:25;;;;;;;9.35;5.00;;;;;;;14.65;76.62;102296.81;4973341;28;20039;-45
2023/05/17 07:47:54;;;;;;;13.13;5.18;;;;;;;14.87;76.86;102293.75;4973140;28;20051;-46
2023/05/17 07:50:21;;;;;;;10.35;4.80;;;;;;;15.20;77.17;102291.91;4973609;28;20089;-47
2023/05/17 07:52:47;;;;;;;9.15;5.10;;;;;;;15.62;77.14;102289.16;4972282;28;20035;-45
2023/05/17 07:55:14;;;;;;;12.38;4.10;;;;;;;16.03;76.42;102286.28;4972232;28;20043;-45
2023/05/17 07:57:46;;;;;;;11.23;4.57;;;;;;;16.62;75.58;102288.72;4973100;28;20054;-47
2023/05/17 08:00:13;;;;;;;8.35;4.30;;;;;;;17.21;73.78;102295.44;4973370;28;20057;-50
2023/05/17 08:02:40;;;;;;;10.07;4.70;;;;;;;17.93;71.02;102293.59;4970881;28;20046;-44
2023/05/17 08:05:07;;;;;;;10.98;4.63;;;;;;;18.62;68.00;102288.28;4974334;28;20057;-47
2023/05/17 08:07:34;;;;;;;10.07;4.53;;;;;;;19.37;65.57;102291.72;4960705;28;20386;-46
2023/05/17 08:10:01;;;;;;;10.55;4.55;;;;;;;19.91;62.70;102291.63;4972241;28;20073;-48
2023/05/17 08:12:28;;;;;;;9.90;3.70;;;;;;;20.32;60.35;102297.66;4960809;28;20049;-46
2023/05/17 08:14:56;;;;;;;8.77;4.25;;;;;;;20.52;58.71;102291.59;4973064;28;20129;-47
2023/05/17 08:17:23;;;;;;;14.25;4.97;;;;;;;20.78;56.91;102293.66;4970638;28;20058;-47
2023/05/17 08:19:50;;;;;;;10.05;4.38;;;;;;;21.04;55.42;102296.47;4973026;28;20074;-48
2023/05/17 08:22:18;;;;;;;5.85;3.53;;;;;;;21.23;54.06;102287.94;4972842;28;20464;-47
2023/05/17 08:24:45;;;;;;;10.43;4.18;;;;;;;21.52;53.41;102289.16;4972798;28;20043;-45
2023/05/17 08:27:12;;;;;;;9.18;4.18;;;;;;;21.83;51.78;102290.72;4970862;28;20067;-45
2023/05/17 08:29:39;;;;;;;10.55;4.30;;;;;;;21.83;50.94;102296.38;4972455;28;20389;-54
2023/05/17 08:32:06;;;;;;;8.65;4.32;;;;;;;21.58;50.47;102289.59;4973368;28;20039;-52
2023/05/17 08:34:35;;;;;;;10.32;4.78;;;;;;;21.22;50.39;102291.94;4972842;28;20039;-45
2023/05/17 08:37:05;;;;;;;8.55;3.60;;;;;;;21.01;50.87;102291.59;4963851;28;20039;-47
2023/05/17 08:39:32;;;;;;;7.22;4.13;;;;;;;21.00;50.49;102295.59;4972018;28;20038;-45
2023/05/17 08:42:01;;;;;;;10.55;4.68;;;;;;;21.18;49.72;102284.66;4972425;28;20054;-46
2023/05/17 08:44:28;;;;;;;10.88;4.20;;;;;;;21.29;49.56;102282.00;4971632;28;20085;-48
2023/05/17 08:46:58;;;;;;;9.27;4.22;;;;;;;21.47;49.06;102281.00;4971266;28;20074;-46
2023/05/17 08:49:27;;;;;;;10.10;4.47;;;;;;;21.78;49.05;102276.97;4972708;28;20047;-46
2023/05/17 08:51:58;;;;;;;8.88;4.25;;;;;;;22.11;48.39;102279.78;4971112;28;20038;-49
2023/05/17 08:54:25;;;;;;;7.72;3.45;;;;;;;22.29;47.62;102282.81;4972284;28;20050;-47
2023/05/17 08:56:59;;;;;;;10.82;3.90;;;;;;;22.15;47.18;102289.13;4970985;28;20078;-45
2023/05/17 08:59:32;;;;;;;10.88;4.25;;;;;;;21.92;46.96;102285.66;4970691;28;20058;-48
2023/05/17 09:02:00;;;;;;;10.65;3.95;;;;;;;21.42;47.26;102278.53;4971429;28;20097;-46
2023/05/17 09:04:29;;;;;;;13.45;4.60;;;;;;;21.24;47.38;102288.75;4971698;28;20057;-46
2023/05/17 09:06:57;;;;;;;8.43;3.42;;;;;;;21.29;47.13;102284.81;4975088;28;20054;-45
2023/05/17 09:09:25;;;;;;;8.45;3.65;;;;;;;21.47;47.07;102291.50;4968338;28;20051;-48
2023/05/17 09:11:51;;;;;;;8.88;4.30;;;;;;;21.60;46.66;102290.88;4972033;28;20047;-46
2023/05/17 09:14:18;;;;;;;7.95;3.42;;;;;;;21.55;46.12;102284.75;4971876;28;20572;-45
2023/05/17 09:16:45;;;;;;;6.07;3.60;;;;;;;21.50;45.96;102279.47;4971921;28;20051;-45
2023/05/17 09:19:16;;;;;;;10.50;4.28;;;;;;;21.35;45.57;102286.06;4970663;28;20134;-49
2023/05/17 09:21:46;;;;;;;8.95;4.32;;;;;;;21.17;45.97;102278.19;4970057;28;20051;-45
2023/05/17 09:24:13;;;;;;;8.63;3.90;;;;;;;20.97;46.28;102281.50;4972089;28;20058;-45
2023/05/17 09:26:44;;;;;;;7.28;4.38;;;;;;;20.93;46.70;102280.59;4971942;28;20055;-45
2023/05/17 09:29:13;;;;;;;8.00;3.20;;;;;;;20.95;45.89;102281.84;4971955;28;20046;-46
2023/05/17 09:31:41;;;;;;;6.20;3.78;;;;;;;20.91;46.15;102278.19;4969898;28;20046;-45
2023/05/17 09:34:11;;;;;;;10.52;3.83;;;;;;;21.01;45.54;102280.34;4970237;28;20178;-46
2023/05/17 09:36:42;;;;;;;7.50;3.42;;;;;;;21.07;45.61;102276.03;4970161;28;20141;-45
2023/05/17 09:39:11;;;;;;;6.72;3.92;;;;;;;21.24;45.41;102281.09;4971264;28;20121;-45
2023/05/17 09:41:44;;;;;;;7.78;3.50;;;;;;;21.52;44.84;102288.34;4970371;28;20145;-46
2023/05/17 09:44:12;;;;;;;9.05;3.45;;;;;;;21.60;44.35;102282.41;4970921;28;20141;-45
2023/05/17 09:46:43;;;;;;;9.70;3.33;;;;;;;21.81;43.15;102291.13;4970984;28;20054;-45
2023/05/17 09:49:10;;;;;;;7.82;3.53;;;;;;;22.29;42.23;102280.78;4971196;28;20051;-46
2023/05/17 09:51:41;;;;;;;7.30;3.35;;;;;;;22.90;41.65;102284.97;4969086;28;20047;-48
2023/05/17 09:54:09;;;;;;;10.18;4.05;;;;;;;23.46;40.69;102287.34;4969846;28;20420;-48
2023/05/17 09:56:38;;;;;;;8.10;4.00;;;;;;;23.88;39.68;102279.03;4971036;28;20097;-48
2023/05/17 09:59:14;;;;;;;6.20;3.55;;;;;;;24.10;39.53;102282.78;4953711;28;20047;-51
2023/05/17 10:01:46;;;;;;;10.75;3.92;;;;;;;24.38;39.18;102293.34;4969505;28;20047;-46
2023/05/17 10:04:19;;;;;;;9.10;3.53;;;;;;;24.58;38.00;102292.56;4969515;28;20047;-48
2023/05/17 10:06:48;;;;;;;8.07;3.53;;;;;;;24.74;37.63;102281.63;4975153;28;20047;-47
2023/05/17 10:09:23;;;;;;;10.90;4.03;;;;;;;24.72;37.71;102284.06;4970147;28;20476;-46
2023/05/17 10:11:51;;;;;;;7.75;3.88;;;;;;;24.74;37.31;102275.97;4968598;28;20050;-46
2023/05/17 10:14:32;;;;;;;12.75;4.70;;;;;;;24.70;37.87;102277.97;4970969;28;20061;-45
2023/05/17 10:17:01;;;;;;;6.22;3.35;;;;;;;24.61;38.08;102269.09;4953702;28;20042;-48
2023/05/17 10:19:29;;;;;;;7.80;3.50;;;;;;;24.68;37.92;102271.09;4970536;28;20109;-49
2023/05/17 10:21:57;;;;;;;6.90;3.88;;;;;;;24.61;38.07;102256.94;4969427;28;20043;-46
2023/05/17 10:24:45;;;;;;;10.00;3.38;;;;;;;24.44;38.77;102255.72;4970926;28;20497;-48
2023/05/17 10:27:12;;;;;;;9.75;4.15;;;;;;;24.38;38.60;102263.03;4966178;28;20035;-46
2023/05/17 10:29:40;;;;;;;7.97;4.30;;;;;;;24.29;38.89;102258.94;4970642;28;20055;-47
2023/05/17 10:32:08;;;;;;;10.20;3.85;;;;;;;24.36;38.88;102248.44;4969455;28;20138;-45
2023/05/17 10:34:38;;;;;;;6.93;3.53;;;;;;;24.31;38.87;102248.84;4970464;28;20404;-46
2023/05/17 10:37:06;;;;;;;7.80;3.35;;;;;;;24.34;39.01;102244.41;4957825;28;20390;-45
2023/05/17 10:39:37;;;;;;;6.53;3.22;;;;;;;24.27;38.91;102233.06;4969850;28;20058;-47
2023/05/17 10:42:07;;;;;;;7.80;3.78;;;;;;;23.93;39.23;102236.25;4969142;28;20130;-46
2023/05/17 10:44:41;;;;;;;10.23;4.40;;;;;;;23.78;40.11;102239.41;4969350;28;20070;-45
2023/05/17 10:47:08;;;;;;;6.75;3.05;;;;;;;23.61;40.16;102243.81;4969915;28;20061;-49
2023/05/17 10:49:43;;;;;;;10.50;3.97;;;;;;;23.28;40.05;102242.03;4969714;28;20299;-47
2023/05/17 10:52:12;;;;;;;8.88;3.55;;;;;;;22.89;40.82;102233.31;4969329;28;20062;-46
2023/05/17 10:54:42;;;;;;;9.85;3.53;;;;;;;22.66;41.13;102235.59;4952743;28;20114;-46
2023/05/17 10:57:18;;;;;;;11.60;3.85;;;;;;;22.50;41.67;102239.84;4970419;28;20047;-46
2023/05/17 10:59:57;;;;;;;6.43;3.65;;;;;;;22.45;41.78;102230.53;4970020;28;20046;-46
2023/05/17 11:02:27;;;;;;;10.48;3.92;;;;;;;22.34;41.77;102229.66;4968199;28;20054;-46
2023/05/17 11:04:59;;;;;;;7.65;3.78;;;;;;;22.11;41.43;102220.56;4969809;28;20082;-48
2023/05/17 11:07:30;;;;;;;11.00;3.78;;;;;;;21.98;42.19;102222.03;4972866;28;20051;-45
2023/05/17 11:10:09;;;;;;;8.43;3.67;;;;;;;21.97;42.85;102226.06;4969791;28;20572;-45
2023/05/17 11:12:39;;;;;;;9.63;4.30;;;;;;;21.91;43.61;102224.78;4968024;28;20070;-45
2023/05/17 11:15:07;;;;;;;8.75;4.18;;;;;;;21.66;44.55;102218.03;4969878;28;20051;-45
2023/05/17 11:17:51;;;;;;;13.30;4.32;;;;;;;21.44;45.16;102221.81;4968338;28;20070;-45
2023/05/17 11:20:24;;;;;;;11.18;4.50;;;;;;;21.35;45.97;102210.00;4969977;28;20049;-49
2023/05/17 11:22:59;;;;;;;9.05;4.55;;;;;;;21.29;46.05;102211.56;4968878;28;20480;-45
2023/05/17 11:25:34;;;;;;;12.07;4.28;;;;;;;21.24;46.38;102210.69;4969885;28;20050;-45
2023/05/17 11:28:17;;;;;;;10.60;5.07;;;;;;;21.19;46.72;102201.75;4969619;28;20047;-50